Time;durP1;ratioP1;P1;durP2;ratioP2;P2;SDS_P1;SDS_P2;PMS_P1;PMS_P2;Temp;Humidity;BMP_temperature;BMP_pressure;BME280_temperature;BME280_humidity;BME280_pressure;Samples;Min_cycle;Max_cycle;Signal;HPM_P1;HPM_P2
2024/01/03 00:01:20;;;;;;;5.43;1.57;;;10.80;99.90;;;;;;4893287;29;20424;-76
2024/01/03 00:03:46;;;;;;;11.33;1.80;;;10.90;99.90;;;;;;4898595;29;20200;-74
2024/01/03 00:06:13;;;;;;;3.53;1.20;;;10.80;99.90;;;;;;4890346;29;20222;-73
2024/01/03 00:08:39;;;;;;;8.07;2.37;;;10.70;99.90;;;;;;4900689;29;20615;-74
2024/01/03 00:11:05;;;;;;;7.30;1.80;;;10.70;99.90;;;;;;4899379;29;20452;-73
2024/01/03 00:13:31;;;;;;;10.53;2.03;;;10.80;99.90;;;;;;4899445;29;20195;-73
2024/01/03 00:16:06;;;;;;;5.87;1.87;;;10.80;99.90;;;;;;4894371;29;20478;-73
2024/01/03 00:18:49;;;;;;;6.90;1.50;;;10.80;99.90;;;;;;4892984;29;20436;-74
2024/01/03 00:21:25;;;;;;;8.17;2.10;;;10.70;99.90;;;;;;4895676;29;20441;-75
2024/01/03 00:23:53;;;;;;;12.70;2.60;;;10.70;99.90;;;;;;4898706;29;20438;-73
2024/01/03 00:26:19;;;;;;;9.03;2.30;;;10.70;99.90;;;;;;4892898;29;20429;-74
2024/01/03 00:28:45;;;;;;;6.13;1.90;;;10.70;99.90;;;;;;4893970;29;20481;-73
2024/01/03 00:31:38;;;;;;;9.10;1.90;;;10.60;99.90;;;;;;4877077;29;20451;-73
2024/01/03 00:34:15;;;;;;;8.03;1.67;;;10.70;99.90;;;;;;4889959;29;20427;-71
2024/01/03 00:36:41;;;;;;;6.83;1.70;;;10.60;99.90;;;;;;4886104;29;20460;-72
2024/01/03 00:39:07;;;;;;;4.40;1.70;;;10.50;99.90;;;;;;4892725;29;20499;-74
2024/01/03 00:41:32;;;;;;;4.10;1.50;;;10.50;99.90;;;;;;4895081;29;20286;-74
2024/01/03 00:43:58;;;;;;;4.27;2.00;;;10.50;99.90;;;;;;4893088;29;20207;-73
2024/01/03 00:46:24;;;;;;;8.13;1.63;;;10.50;99.90;;;;;;4891172;29;20216;-73
2024/01/03 00:48:49;;;;;;;5.17;1.40;;;10.50;99.90;;;;;;4890273;29;20229;-72
2024/01/03 00:51:15;;;;;;;10.80;2.03;;;10.50;99.90;;;;;;4889674;29;20220;-72
2024/01/03 00:53:41;;;;;;;6.67;1.20;;;10.40;99.90;;;;;;4885412;29;20206;-73
2024/01/03 00:56:07;;;;;;;10.37;2.40;;;10.40;99.90;;;;;;4885159;29;20499;-72
2024/01/03 00:58:33;;;;;;;7.17;1.20;;;10.30;99.90;;;;;;4894037;29;20216;-74
2024/01/03 01:00:59;;;;;;;6.80;1.20;;;10.30;99.90;;;;;;4871305;29;20200;-72
2024/01/03 01:03:24;;;;;;;4.27;1.30;;;10.30;99.90;;;;;;4896560;29;20226;-72
2024/01/03 01:05:50;;;;;;;7.03;0.90;;;10.40;99.90;;;;;;4888715;29;20218;-73
2024/01/03 01:08:16;;;;;;;6.37;1.50;;;10.40;99.90;;;;;;4890935;29;20199;-72
2024/01/03 01:10:41;;;;;;;3.73;1.10;;;10.60;99.90;;;;;;4889455;29;20187;-73
2024/01/03 01:13:07;;;;;;;5.03;1.93;;;10.60;99.90;;;;;;4885481;29;20458;-74
2024/01/03 01:15:32;;;;;;;5.40;1.30;;;10.60;99.90;;;;;;4886771;29;20256;-73
2024/01/03 01:17:58;;;;;;;4.00;0.90;;;10.60;99.90;;;;;;4887247;29;20288;-72
2024/01/03 01:20:23;;;;;;;2.83;1.33;;;10.60;99.90;;;;;;4882445;29;20290;-72
2024/01/03 01:22:49;;;;;;;4.67;1.30;;;10.70;99.90;;;;;;4892717;29;20191;-72
2024/01/03 01:25:17;;;;;;;5.20;1.40;;;10.70;99.90;;;;;;4894829;29;20494;-74
2024/01/03 01:27:42;;;;;;;5.17;1.33;;;10.70;99.90;;;;;;4890655;29;20191;-72
2024/01/03 01:30:09;;;;;;;3.20;1.40;;;10.70;99.90;;;;;;4894007;29;20520;-72
2024/01/03 01:32:35;;;;;;;6.13;1.60;;;10.70;99.90;;;;;;4890861;29;20211;-72
2024/01/03 01:35:00;;;;;;;3.43;0.77;;;10.70;99.90;;;;;;4882881;29;20863;-72
2024/01/03 01:37:26;;;;;;;3.10;1.13;;;10.50;99.90;;;;;;4889305;29;20226;-73
2024/01/03 01:39:51;;;;;;;3.80;1.30;;;10.40;99.90;;;;;;4891070;29;20200;-73
2024/01/03 01:42:17;;;;;;;2.70;1.10;;;10.30;99.90;;;;;;4891655;29;20283;-73
2024/01/03 01:44:42;;;;;;;8.63;1.60;;;10.20;99.90;;;;;;4890065;29;20262;-72
2024/01/03 01:47:11;;;;;;;5.27;1.40;;;10.10;99.90;;;;;;4873013;29;20183;-73
2024/01/03 01:49:39;;;;;;;3.00;0.93;;;10.10;99.90;;;;;;4885476;29;20232;-72
2024/01/03 01:52:13;;;;;;;3.40;1.00;;;10.10;99.90;;;;;;4888462;29;20511;-73
2024/01/03 01:54:39;;;;;;;2.50;0.80;;;10.00;99.90;;;;;;4890774;29;20437;-74
2024/01/03 01:57:05;;;;;;;6.43;1.20;;;10.00;99.90;;;;;;4887711;29;20444;-72
2024/01/03 01:59:31;;;;;;;4.60;1.10;;;10.00;99.90;;;;;;4898968;29;20780;-71
2024/01/03 02:01:57;;;;;;;5.77;1.30;;;9.90;99.90;;;;;;4884618;29;20436;-73
2024/01/03 02:04:24;;;;;;;7.70;1.43;;;9.90;99.90;;;;;;4874471;29;20432;-72
2024/01/03 02:06:50;;;;;;;5.63;1.30;;;9.90;99.90;;;;;;4891749;29;20451;-72
2024/01/03 02:09:15;;;;;;;4.17;1.13;;;9.80;99.90;;;;;;4892363;29;20479;-73
2024/01/03 02:11:45;;;;;;;12.03;2.20;;;9.80;99.90;;;;;;4889465;29;20540;-73
2024/01/03 02:14:10;;;;;;;4.60;1.23;;;9.80;99.90;;;;;;4876816;29;20217;-71
2024/01/03 02:16:36;;;;;;;5.53;1.20;;;9.70;99.90;;;;;;4885912;29;20717;-73
2024/01/03 02:19:04;;;;;;;2.77;0.93;;;9.70;99.90;;;;;;4888189;29;20207;-72
2024/01/03 02:21:30;;;;;;;4.20;1.70;;;9.70;99.90;;;;;;4888761;29;20427;-72
2024/01/03 02:23:56;;;;;;;7.40;1.40;;;9.70;99.90;;;;;;4900526;29;20416;-76
2024/01/03 02:26:21;;;;;;;4.60;1.80;;;9.70;99.90;;;;;;4894149;29;20934;-74
2024/01/03 02:28:48;;;;;;;7.40;1.77;;;9.70;99.90;;;;;;4897203;29;20306;-72
2024/01/03 02:31:14;;;;;;;4.07;1.20;;;9.80;99.90;;;;;;4892276;29;20200;-73
2024/01/03 02:33:40;;;;;;;6.03;1.60;;;9.80;99.90;;;;;;4894470;29;20424;-73
2024/01/03 02:36:06;;;;;;;4.00;1.17;;;9.70;99.90;;;;;;4900447;29;20516;-73
2024/01/03 02:38:32;;;;;;;4.83;1.40;;;9.80;99.90;;;;;;4883794;29;20203;-73
2024/01/03 02:40:57;;;;;;;6.03;1.30;;;9.70;99.90;;;;;;4896191;29;20564;-75
2024/01/03 02:43:23;;;;;;;4.07;1.63;;;9.70;99.90;;;;;;4895763;29;20202;-73
2024/01/03 02:45:49;;;;;;;10.07;1.57;;;9.70;99.90;;;;;;4879147;29;20247;-72
2024/01/03 02:48:14;;;;;;;6.20;1.50;;;9.80;99.90;;;;;;4894675;29;20468;-71
2024/01/03 02:50:44;;;;;;;6.40;1.20;;;9.80;99.90;;;;;;4900976;29;20193;-73
2024/01/03 02:53:10;;;;;;;8.40;2.23;;;9.70;99.90;;;;;;4876226;29;20466;-73
2024/01/03 02:55:36;;;;;;;4.37;1.43;;;9.80;99.90;;;;;;4889381;29;20452;-72
2024/01/03 02:58:02;;;;;;;4.70;1.30;;;9.80;99.90;;;;;;4893798;29;20519;-73
2024/01/03 03:00:29;;;;;;;4.97;1.53;;;9.90;99.90;;;;;;4893185;29;20199;-73
2024/01/03 03:02:55;;;;;;;3.43;1.30;;;9.90;99.90;;;;;;4893434;29;20440;-73
2024/01/03 03:05:20;;;;;;;6.93;1.23;;;9.90;99.90;;;;;;4894429;29;20699;-73
2024/01/03 03:07:46;;;;;;;6.47;1.10;;;9.90;99.90;;;;;;4895591;29;20206;-72
2024/01/03 03:10:14;;;;;;;6.70;1.20;;;9.90;99.90;;;;;;4900567;29;20234;-73
2024/01/03 03:12:39;;;;;;;3.80;1.10;;;10.00;99.90;;;;;;4895096;29;20186;-73
2024/01/03 03:15:06;;;;;;;3.17;1.13;;;10.00;99.90;;;;;;4892389;29;20904;-75
2024/01/03 03:17:31;;;;;;;4.30;1.13;;;9.90;99.90;;;;;;4897778;29;20255;-73
2024/01/03 03:19:57;;;;;;;4.13;1.00;;;10.00;99.90;;;;;;4899009;29;20438;-74
2024/01/03 03:22:22;;;;;;;3.07;1.00;;;10.00;99.90;;;;;;4897432;29;20357;-74
2024/01/03 03:24:49;;;;;;;4.87;0.70;;;9.90;99.90;;;;;;4895511;29;20195;-73
2024/01/03 03:27:15;;;;;;;4.93;1.10;;;9.90;99.90;;;;;;4883175;29;20191;-73
2024/01/03 03:29:40;;;;;;;1.73;0.80;;;9.80;99.90;;;;;;4906821;29;21038;-72
2024/01/03 03:32:07;;;;;;;2.83;1.10;;;9.60;99.90;;;;;;4902226;29;20198;-72
2024/01/03 03:34:32;;;;;;;1.70;0.80;;;9.50;99.90;;;;;;4901522;29;20515;-73
2024/01/03 03:36:58;;;;;;;5.73;1.17;;;9.40;99.90;;;;;;4905907;29;20499;-73
2024/01/03 03:39:25;;;;;;;5.07;1.07;;;9.30;99.90;;;;;;4898967;29;20282;-73
2024/01/03 03:41:50;;;;;;;7.70;2.20;;;9.20;99.90;;;;;;4896203;29;20204;-74
2024/01/03 03:44:16;;;;;;;3.50;1.50;;;9.20;99.90;;;;;;4890212;29;20487;-73
2024/01/03 03:46:41;;;;;;;9.73;1.83;;;9.20;99.90;;;;;;4887522;29;20223;-73
2024/01/03 03:49:07;;;;;;;5.07;1.30;;;9.30;99.90;;;;;;4887333;29;20223;-72
2024/01/03 03:51:33;;;;;;;4.00;1.30;;;9.30;99.90;;;;;;4887248;29;20222;-72
2024/01/03 03:53:59;;;;;;;8.17;1.60;;;9.30;99.90;;;;;;4900300;29;20183;-72
2024/01/03 03:56:26;;;;;;;8.13;1.53;;;9.30;99.90;;;;;;4894978;29;20219;-74
2024/01/03 03:58:52;;;;;;;7.10;2.03;;;9.30;99.90;;;;;;4897685;29;20419;-73
2024/01/03 04:01:18;;;;;;;9.47;2.10;;;9.30;99.90;;;;;;4889007;29;20502;-72
2024/01/03 04:03:43;;;;;;;10.00;2.60;;;9.40;99.90;;;;;;4890425;29;20455;-72
2024/01/03 04:06:09;;;;;;;2.70;1.60;;;9.40;99.90;;;;;;4897205;29;20542;-73
2024/01/03 04:08:35;;;;;;;13.00;2.30;;;9.50;99.90;;;;;;4894288;29;20216;-72
2024/01/03 04:11:04;;;;;;;7.77;1.53;;;9.60;99.90;;;;;;4890946;29;20748;-73
2024/01/03 04:13:30;;;;;;;9.37;1.87;;;9.50;99.90;;;;;;4887836;29;20199;-73
2024/01/03 04:15:55;;;;;;;5.17;2.17;;;9.50;99.90;;;;;;4888766;29;20550;-73
2024/01/03 04:18:21;;;;;;;5.10;1.30;;;9.50;99.90;;;;;;4891196;29;20578;-72
2024/01/03 04:20:47;;;;;;;6.80;2.10;;;9.40;99.90;;;;;;4896728;29;20564;-74
2024/01/03 04:23:12;;;;;;;6.53;1.50;;;9.40;99.90;;;;;;4891555;29;20239;-74
2024/01/03 04:25:38;;;;;;;2.93;1.17;;;9.30;99.90;;;;;;4899482;29;20456;-74
2024/01/03 04:28:04;;;;;;;7.43;1.67;;;9.20;99.90;;;;;;4899461;29;20195;-73
2024/01/03 04:30:30;;;;;;;5.00;1.83;;;9.30;99.90;;;;;;4896551;29;20228;-74
2024/01/03 04:32:55;;;;;;;11.97;2.07;;;9.30;99.90;;;;;;4900457;29;20479;-73
2024/01/03 04:35:21;;;;;;;5.90;1.23;;;9.20;99.90;;;;;;4894542;29;20338;-74
2024/01/03 04:37:46;;;;;;;6.37;1.47;;;9.10;99.90;;;;;;4901020;29;20300;-74
2024/01/03 04:40:12;;;;;;;3.23;1.17;;;9.10;99.90;;;;;;4879342;29;20195;-73
2024/01/03 04:42:37;;;;;;;5.27;2.20;;;9.10;99.90;;;;;;4889430;29;20204;-74
2024/01/03 04:45:03;;;;;;;6.50;1.63;;;9.20;99.90;;;;;;4892171;29;20262;-73
2024/01/03 04:47:30;;;;;;;10.20;2.07;;;9.30;99.90;;;;;;4888802;29;20203;-75
2024/01/03 04:49:56;;;;;;;3.07;1.30;;;9.40;99.90;;;;;;4895494;29;20554;-75
2024/01/03 04:52:21;;;;;;;10.70;3.60;;;9.50;99.90;;;;;;4891033;29;20840;-74
2024/01/03 04:54:47;;;;;;;6.43;1.63;;;9.50;99.90;;;;;;4889758;29;20200;-73
2024/01/03 04:57:12;;;;;;;8.17;1.40;;;9.60;99.90;;;;;;4894858;29;20251;-73
2024/01/03 04:59:38;;;;;;;6.63;1.60;;;9.70;99.90;;;;;;4896445;29;20191;-75
2024/01/03 05:02:04;;;;;;;5.70;1.83;;;9.70;99.90;;;;;;4894565;29;20195;-73
2024/01/03 05:04:29;;;;;;;4.80;1.70;;;9.80;99.90;;;;;;4886601;29;20243;-73
2024/01/03 05:06:55;;;;;;;11.60;2.23;;;9.90;99.90;;;;;;4888110;29;20224;-74
2024/01/03 05:09:21;;;;;;;7.80;1.90;;;9.90;99.90;;;;;;4890317;29;20226;-73
2024/01/03 05:11:47;;;;;;;7.57;1.80;;;10.00;99.90;;;;;;4892786;29;20423;-74
2024/01/03 05:14:12;;;;;;;3.90;1.43;;;10.00;99.90;;;;;;4894104;29;20238;-73
2024/01/03 05:16:38;;;;;;;5.40;1.77;;;10.00;99.90;;;;;;4886691;29;20563;-73
2024/01/03 05:19:03;;;;;;;3.77;1.50;;;10.10;99.90;;;;;;4887035;29;20500;-73
2024/01/03 05:21:29;;;;;;;9.80;3.10;;;10.10;99.90;;;;;;4894540;29;20209;-73
2024/01/03 05:23:54;;;;;;;9.47;2.67;;;10.10;99.90;;;;;;4886977;29;20282;-73
2024/01/03 05:26:20;;;;;;;4.23;1.53;;;10.00;99.90;;;;;;4900361;29;20516;-74
2024/01/03 05:28:45;;;;;;;6.60;1.70;;;10.10;99.90;;;;;;4895667;29;20230;-73
2024/01/03 05:31:11;;;;;;;13.63;2.43;;;10.00;99.90;;;;;;4886339;29;20600;-72
2024/01/03 05:33:36;;;;;;;6.97;2.00;;;10.10;99.90;;;;;;4886733;29;20429;-74
2024/01/03 05:36:04;;;;;;;6.50;2.07;;;10.10;99.90;;;;;;4883317;29;20641;-72
2024/01/03 05:38:29;;;;;;;7.23;2.57;;;10.20;99.90;;;;;;4892815;29;20187;-73
2024/01/03 05:40:55;;;;;;;3.40;1.73;;;10.20;99.90;;;;;;4892975;29;20436;-73
2024/01/03 05:43:21;;;;;;;9.53;2.20;;;10.20;99.90;;;;;;4887888;29;20199;-74
2024/01/03 05:45:47;;;;;;;8.73;2.20;;;10.20;99.90;;;;;;4885367;29;20216;-73
2024/01/03 05:48:12;;;;;;;6.83;2.20;;;10.20;99.90;;;;;;4893490;29;20419;-73
2024/01/03 05:50:38;;;;;;;10.33;2.23;;;10.20;99.90;;;;;;4888548;29;20210;-72
2024/01/03 05:53:03;;;;;;;19.37;2.80;;;10.10;99.90;;;;;;4888326;29;20250;-72
2024/01/03 05:55:29;;;;;;;16.63;5.40;;;10.10;99.90;;;;;;4890500;29;20235;-73
2024/01/03 05:57:56;;;;;;;8.30;2.83;;;10.10;99.90;;;;;;4890839;29;20239;-74
2024/01/03 06:00:21;;;;;;;11.73;2.70;;;10.10;99.90;;;;;;4888370;29;20764;-73
2024/01/03 06:02:47;;;;;;;6.97;3.20;;;10.10;99.90;;;;;;4890526;29;20266;-73
2024/01/03 06:05:16;;;;;;;7.20;2.90;;;10.30;99.90;;;;;;4890751;29;20268;-73
2024/01/03 06:07:44;;;;;;;9.73;2.13;;;10.30;99.90;;;;;;4894005;29;20187;-75
2024/01/03 06:10:10;;;;;;;8.77;2.33;;;10.40;99.90;;;;;;4890652;29;20566;-74
2024/01/03 06:12:35;;;;;;;4.67;1.80;;;10.40;99.90;;;;;;4876161;29;20497;-73
2024/01/03 06:15:01;;;;;;;8.53;2.20;;;10.40;99.90;;;;;;4897283;29;20241;-75
2024/01/03 06:17:27;;;;;;;11.17;2.40;;;10.40;99.90;;;;;;4890084;29;20283;-72
2024/01/03 06:19:52;;;;;;;8.97;2.37;;;10.40;99.90;;;;;;4884770;29;20343;-72
2024/01/03 06:22:18;;;;;;;14.00;2.73;;;10.40;99.90;;;;;;4891768;29;20279;-74
2024/01/03 06:24:43;;;;;;;4.43;1.70;;;10.40;99.90;;;;;;4889108;29;20192;-74
2024/01/03 06:27:09;;;;;;;10.00;2.30;;;10.50;99.90;;;;;;4894927;29;20196;-74
2024/01/03 06:29:34;;;;;;;8.13;2.40;;;10.40;99.90;;;;;;4889301;29;20255;-74
2024/01/03 06:32:00;;;;;;;10.43;2.47;;;10.40;99.90;;;;;;4887236;29;20230;-74
2024/01/03 06:34:26;;;;;;;9.00;2.30;;;10.30;99.90;;;;;;4893954;29;20225;-75
2024/01/03 06:36:52;;;;;;;12.63;2.37;;;10.30;99.90;;;;;;4894980;29;20550;-74
2024/01/03 06:39:17;;;;;;;9.40;2.30;;;10.30;99.90;;;;;;4889742;29;20199;-75
2024/01/03 06:41:43;;;;;;;8.93;2.57;;;10.40;99.90;;;;;;4895583;29;20216;-74
2024/01/03 06:44:09;;;;;;;9.23;2.30;;;10.40;99.90;;;;;;4905714;29;20195;-74
2024/01/03 06:46:34;;;;;;;8.60;2.03;;;10.50;99.90;;;;;;4893040;29;20212;-74
2024/01/03 06:49:00;;;;;;;8.67;2.73;;;10.60;99.90;;;;;;4891444;29;20481;-76
2024/01/03 06:51:26;;;;;;;6.87;1.83;;;10.70;99.90;;;;;;4901219;29;20251;-74
2024/01/03 06:53:51;;;;;;;11.77;2.43;;;10.70;99.90;;;;;;4894307;29;20184;-74
2024/01/03 06:56:24;;;;;;;11.77;2.83;;;10.70;99.90;;;;;;4894535;29;20228;-75
2024/01/03 06:58:50;;;;;;;6.40;2.10;;;10.70;99.90;;;;;;4889864;29;20212;-75
2024/01/03 07:01:16;;;;;;;6.37;2.23;;;10.70;99.90;;;;;;4901952;29;20573;-75
2024/01/03 07:03:42;;;;;;;4.73;1.90;;;10.70;99.90;;;;;;4899278;29;20865;-74
2024/01/03 07:06:09;;;;;;;8.80;2.27;;;10.70;99.90;;;;;;4897260;29;20223;-76
2024/01/03 07:08:35;;;;;;;7.43;2.70;;;10.60;99.90;;;;;;4907447;29;20507;-74
2024/01/03 07:11:00;;;;;;;9.73;3.07;;;10.50;99.90;;;;;;4902321;29;20434;-76
2024/01/03 07:13:26;;;;;;;8.20;2.40;;;10.50;99.90;;;;;;4896320;29;20193;-75
2024/01/03 07:15:51;;;;;;;6.03;1.93;;;10.50;99.90;;;;;;4892775;29;20224;-75
2024/01/03 07:18:17;;;;;;;6.83;1.77;;;10.50;99.90;;;;;;4895742;29;20839;-75
2024/01/03 07:20:43;;;;;;;7.90;1.90;;;10.40;99.90;;;;;;4897131;29;20210;-75
2024/01/03 07:23:08;;;;;;;4.80;1.60;;;10.40;99.90;;;;;;4905323;29;20180;-77
2024/01/03 07:25:34;;;;;;;7.57;1.67;;;10.30;99.90;;;;;;4907557;29;20349;-77
2024/01/03 07:28:00;;;;;;;5.67;1.93;;;10.40;99.90;;;;;;4902914;29;20189;-74
2024/01/03 07:30:27;;;;;;;10.53;2.33;;;10.50;99.90;;;;;;4880390;29;20499;-75
2024/01/03 07:32:56;;;;;;;4.70;2.40;;;10.50;99.90;;;;;;4903089;29;20619;-75
2024/01/03 07:35:23;;;;;;;8.50;2.13;;;10.60;99.90;;;;;;4901753;29;20499;-76
2024/01/03 07:37:49;;;;;;;7.80;1.77;;;10.60;99.90;;;;;;4895363;29;20442;-75
2024/01/03 07:40:15;;;;;;;5.87;1.30;;;10.50;99.90;;;;;;4897071;29;20508;-76
2024/01/03 07:42:40;;;;;;;5.30;1.70;;;10.50;99.90;;;;;;4885114;29;20194;-75
2024/01/03 07:45:07;;;;;;;5.50;1.63;;;10.40;99.90;;;;;;4904266;29;20224;-75
2024/01/03 07:47:33;;;;;;;6.57;1.40;;;10.40;99.90;;;;;;4902913;29;20240;-75
2024/01/03 07:49:59;;;;;;;9.90;1.73;;;10.40;99.90;;;;;;4892495;29;20603;-74
2024/01/03 07:52:25;;;;;;;4.43;1.30;;;10.40;99.90;;;;;;4901954;29;20191;-77
2024/01/03 07:54:50;;;;;;;6.80;1.50;;;10.40;99.90;;;;;;4874144;29;20192;-77
2024/01/03 07:57:16;;;;;;;7.07;2.03;;;10.40;99.90;;;;;;4900700;29;20424;-76
2024/01/03 07:59:44;;;;;;;7.00;1.40;;;10.40;99.90;;;;;;4896046;29;20201;-76
2024/01/03 08:02:11;;;;;;;7.00;2.03;;;10.40;99.90;;;;;;4905819;29;20187;-75
2024/01/03 08:04:38;;;;;;;7.90;1.87;;;10.40;99.90;;;;;;4905156;29;20420;-77
2024/01/03 08:07:04;;;;;;;6.80;1.73;;;10.40;99.90;;;;;;4885783;29;20468;-75
2024/01/03 08:09:29;;;;;;;8.00;2.10;;;10.50;99.90;;;;;;4907830;29;20478;-76
2024/01/03 08:11:55;;;;;;;6.80;2.30;;;10.50;99.90;;;;;;4885623;29;20247;-73
2024/01/03 08:14:21;;;;;;;8.17;2.03;;;10.60;99.90;;;;;;4897425;29;20184;-76
2024/01/03 08:16:46;;;;;;;4.07;1.40;;;10.50;99.90;;;;;;4875855;29;20227;-77
2024/01/03 08:19:12;;;;;;;9.50;1.60;;;10.60;99.90;;;;;;4895958;29;20200;-75
2024/01/03 08:21:38;;;;;;;5.87;1.40;;;10.60;99.90;;;;;;4897620;29;20228;-75
2024/01/03 08:24:03;;;;;;;8.70;2.30;;;10.60;99.90;;;;;;4903246;29;20629;-74
2024/01/03 08:26:29;;;;;;;6.27;1.87;;;10.60;99.90;;;;;;4907180;29;20215;-77
2024/01/03 08:28:55;;;;;;;10.13;2.20;;;10.60;99.90;;;;;;4900759;29;20212;-76
2024/01/03 08:31:20;;;;;;;10.57;2.13;;;10.70;99.90;;;;;;4900863;29;20498;-77
2024/01/03 08:33:46;;;;;;;4.73;1.97;;;10.70;99.90;;;;;;4876030;29;20195;-75
2024/01/03 08:36:13;;;;;;;10.03;2.10;;;10.70;99.90;;;;;;4886551;29;20221;-78
2024/01/03 08:38:40;;;;;;;6.77;1.63;;;10.70;99.90;;;;;;4907491;29;20466;-75
2024/01/03 08:41:12;;;;;;;4.40;1.80;;;10.80;99.90;;;;;;4873997;29;20455;-75
2024/01/03 08:43:38;;;;;;;8.30;1.80;;;10.80;99.90;;;;;;4901288;29;20431;-76
2024/01/03 08:46:04;;;;;;;5.97;1.83;;;10.80;99.90;;;;;;4903268;29;20581;-75
2024/01/03 08:48:30;;;;;;;8.47;2.10;;;10.70;99.90;;;;;;4880121;29;20224;-79
2024/01/03 08:50:56;;;;;;;6.63;1.80;;;10.70;99.90;;;;;;4903191;29;20183;-77
2024/01/03 08:53:21;;;;;;;3.90;1.40;;;10.60;99.90;;;;;;4879935;29;20436;-76
2024/01/03 08:55:47;;;;;;;4.63;2.13;;;10.60;99.90;;;;;;4902853;29;20200;-76
2024/01/03 08:58:13;;;;;;;3.93;1.17;;;10.50;99.90;;;;;;4884118;29;20257;-76
2024/01/03 09:00:42;;;;;;;5.53;1.67;;;10.60;99.90;;;;;;4909451;29;20455;-76
2024/01/03 09:03:07;;;;;;;1.77;1.00;;;10.60;99.90;;;;;;4890148;29;20202;-75
2024/01/03 09:05:33;;;;;;;2.80;1.20;;;10.60;99.90;;;;;;4910223;29;20475;-76
2024/01/03 09:07:59;;;;;;;4.10;1.20;;;10.60;99.90;;;;;;4886241;29;20517;-75
2024/01/03 09:10:27;;;;;;;4.90;1.73;;;10.60;99.90;;;;;;4897234;29;20223;-76
2024/01/03 09:12:52;;;;;;;2.37;1.10;;;10.60;99.90;;;;;;4903016;29;20267;-76
2024/01/03 09:15:18;;;;;;;3.10;2.03;;;10.60;99.90;;;;;;4886607;29;20480;-76
2024/01/03 09:17:44;;;;;;;2.20;1.00;;;10.60;99.90;;;;;;4904177;29;20201;-78
2024/01/03 09:20:11;;;;;;;3.17;0.90;;;10.50;99.90;;;;;;4858914;29;20478;-76
2024/01/03 09:22:37;;;;;;;4.23;1.20;;;10.50;99.90;;;;;;4879169;29;20425;-75
2024/01/03 09:25:03;;;;;;;6.63;1.50;;;10.40;99.90;;;;;;4896229;29;20456;-76
2024/01/03 09:27:29;;;;;;;5.80;1.80;;;10.30;99.90;;;;;;4899418;29;20459;-76
2024/01/03 09:29:55;;;;;;;4.60;1.47;;;10.30;99.90;;;;;;4894032;29;20527;-77
2024/01/03 09:32:21;;;;;;;4.97;1.60;;;10.20;99.90;;;;;;4884314;29;20196;-75
2024/01/03 09:34:46;;;;;;;6.63;2.40;;;10.20;99.90;;;;;;4893926;29;20433;-77
2024/01/03 09:37:13;;;;;;;10.50;2.37;;;10.20;99.90;;;;;;4881196;29;20500;-75
2024/01/03 09:39:40;;;;;;;4.23;1.80;;;10.20;99.90;;;;;;4886135;29;20184;-76
2024/01/03 09:42:06;;;;;;;3.97;1.40;;;10.20;99.90;;;;;;4869190;29;20468;-76
2024/01/03 09:44:33;;;;;;;9.53;2.20;;;10.20;99.90;;;;;;4897866;29;20423;-76
2024/01/03 09:46:59;;;;;;;9.50;1.97;;;10.20;99.90;;;;;;4877563;29;20457;-74
2024/01/03 09:49:26;;;;;;;10.27;2.00;;;10.30;99.90;;;;;;4892946;29;20541;-76
2024/01/03 09:51:52;;;;;;;7.47;1.87;;;10.40;99.90;;;;;;4883271;29;20481;-77
2024/01/03 09:54:19;;;;;;;6.47;1.67;;;10.50;99.90;;;;;;4865694;29;20528;-76
2024/01/03 09:56:47;;;;;;;7.87;1.53;;;10.50;99.90;;;;;;4887602;29;20551;-76
2024/01/03 09:59:17;;;;;;;4.00;1.90;;;10.60;99.90;;;;;;4903591;29;20439;-75
2024/01/03 10:01:55;;;;;;;8.80;2.23;;;10.70;99.90;;;;;;4876763;29;20436;-76
2024/01/03 10:04:22;;;;;;;8.47;2.47;;;10.80;99.90;;;;;;4904075;29;20432;-77
2024/01/03 10:06:55;;;;;;;10.30;2.70;;;11.10;99.90;;;;;;4879911;29;20472;-75
2024/01/03 10:09:21;;;;;;;7.80;2.90;;;11.30;99.90;;;;;;4887336;29;20472;-76
2024/01/03 10:11:51;;;;;;;7.93;2.23;;;11.50;99.90;;;;;;4905143;29;20429;-76
2024/01/03 10:14:21;;;;;;;11.97;2.30;;;11.60;99.90;;;;;;4901980;29;20441;-77
2024/01/03 10:16:48;;;;;;;10.97;2.87;;;11.80;99.90;;;;;;4893000;29;20461;-76
2024/01/03 10:19:19;;;;;;;7.80;2.57;;;12.00;99.90;;;;;;4880835;29;20437;-78
2024/01/03 10:21:55;;;;;;;7.00;2.30;;;12.10;99.90;;;;;;4899917;29;20440;-76
2024/01/03 10:24:26;;;;;;;13.23;3.23;;;12.10;99.90;;;;;;4895814;29;20431;-76
2024/01/03 10:26:53;;;;;;;9.87;2.33;;;12.10;99.90;;;;;;4897219;29;20443;-78
2024/01/03 10:29:20;;;;;;;6.87;2.60;;;12.10;99.90;;;;;;4896291;29;20468;-78
2024/01/03 10:31:47;;;;;;;9.47;2.20;;;12.10;99.90;;;;;;4902301;29;20449;-78
2024/01/03 10:34:20;;;;;;;6.90;3.13;;;12.00;99.90;;;;;;4871213;29;20415;-79
2024/01/03 10:36:46;;;;;;;5.97;2.03;;;12.00;99.90;;;;;;4876174;29;20478;-77
2024/01/03 10:39:15;;;;;;;11.97;2.30;;;12.10;99.90;;;;;;4885546;29;20443;-76
2024/01/03 10:41:46;;;;;;;5.83;1.93;;;12.20;99.90;;;;;;4886049;29;20424;-76
2024/01/03 10:44:17;;;;;;;8.67;2.40;;;12.10;99.90;;;;;;4885747;29;20470;-76
2024/01/03 10:46:44;;;;;;;7.77;2.70;;;12.00;99.90;;;;;;4887573;29;20727;-77
2024/01/03 10:49:10;;;;;;;7.60;2.10;;;12.00;99.90;;;;;;4907541;29;20466;-77
2024/01/03 10:51:43;;;;;;;7.10;1.73;;;12.00;99.90;;;;;;4895862;29;20400;-77
2024/01/03 10:54:14;;;;;;;8.37;2.47;;;12.10;99.90;;;;;;4882210;29;20175;-77
2024/01/03 10:56:47;;;;;;;4.00;1.60;;;12.10;99.90;;;;;;4902036;29;20451;-76
2024/01/03 10:59:14;;;;;;;6.43;2.40;;;12.30;99.90;;;;;;4894281;29;20435;-77
2024/01/03 11:01:53;;;;;;;8.90;2.43;;;12.40;99.90;;;;;;4899038;29;20412;-77
2024/01/03 11:04:25;;;;;;;7.23;2.27;;;12.40;99.90;;;;;;4893767;29;20725;-77
2024/01/03 11:07:04;;;;;;;6.40;2.30;;;12.40;99.90;;;;;;4909892;29;20505;-78
2024/01/03 11:09:31;;;;;;;8.17;2.33;;;12.40;99.90;;;;;;4912113;29;20460;-79
2024/01/03 11:12:07;;;;;;;7.67;2.60;;;12.20;99.90;;;;;;4900151;29;20444;-78
2024/01/03 11:14:33;;;;;;;10.50;2.70;;;12.10;99.90;;;;;;4911165;29;20434;-77
2024/01/03 11:17:00;;;;;;;8.13;2.10;;;12.00;99.90;;;;;;4906667;29;20466;-78
2024/01/03 11:19:35;;;;;;;4.93;2.33;;;12.10;99.90;;;;;;4901298;29;20435;-76
2024/01/03 11:22:05;;;;;;;10.63;3.57;;;12.30;99.90;;;;;;4909656;29;20494;-77
2024/01/03 11:24:30;;;;;;;7.83;2.60;;;12.30;99.90;;;;;;4897204;29;20422;-78
2024/01/03 11:26:56;;;;;;;8.47;2.97;;;12.30;99.90;;;;;;4889429;29;20489;-76
2024/01/03 11:29:35;;;;;;;8.40;3.07;;;12.30;99.90;;;;;;4908844;29;20221;-80
2024/01/03 11:32:07;;;;;;;7.13;2.07;;;12.30;99.90;;;;;;4897461;29;20435;-77
2024/01/03 11:34:44;;;;;;;5.40;1.80;;;12.40;99.90;;;;;;4900354;29;20433;-77
2024/01/03 11:37:19;;;;;;;8.93;2.30;;;12.50;99.90;;;;;;4890334;29;20423;-77
2024/01/03 11:39:52;;;;;;;4.90;1.73;;;12.50;99.90;;;;;;4877736;29;20434;-77
2024/01/03 11:42:44;;;;;;;5.57;2.00;;;12.50;99.90;;;;;;4895746;29;20469;-77
2024/01/03 11:45:15;;;;;;;9.00;2.07;;;12.50;99.90;;;;;;4903667;29;20471;-77
2024/01/03 11:47:45;;;;;;;5.67;1.70;;;12.50;99.90;;;;;;4881772;29;20450;-79
2024/01/03 11:50:13;;;;;;;7.70;2.77;;;12.50;99.90;;;;;;4883087;29;20460;-79
2024/01/03 11:52:45;;;;;;;10.40;2.43;;;12.40;99.90;;;;;;4891915;29;20491;-78
2024/01/03 11:55:31;;;;;;;6.67;2.30;;;12.30;99.90;;;;;;4885530;29;20766;-80
2024/01/03 11:58:05;;;;;;;12.63;2.50;;;12.10;99.90;;;;;;4912875;29;20476;-78
2024/01/03 12:00:33;;;;;;;6.23;2.77;;;12.10;99.90;;;;;;4914528;29;20518;-79
2024/01/03 12:02:58;;;;;;;7.83;2.20;;;12.10;99.90;;;;;;4874113;29;20471;-77
2024/01/03 12:05:26;;;;;;;8.57;2.40;;;12.10;99.90;;;;;;4886971;29;20464;-79
2024/01/03 12:07:54;;;;;;;6.43;2.30;;;12.20;99.90;;;;;;4878980;29;20194;-78
2024/01/03 12:10:28;;;;;;;8.93;2.70;;;12.30;99.90;;;;;;4889615;29;20451;-77
2024/01/03 12:12:54;;;;;;;9.53;2.70;;;12.40;99.90;;;;;;4864921;29;20429;-79
2024/01/03 12:15:23;;;;;;;2.87;1.50;;;12.40;99.90;;;;;;4900459;29;20524;-78
2024/01/03 12:17:49;;;;;;;11.10;2.50;;;12.50;99.90;;;;;;4883478;29;20179;-79
2024/01/03 12:20:18;;;;;;;9.67;2.37;;;12.50;99.90;;;;;;4889810;29;20436;-77
2024/01/03 12:22:44;;;;;;;8.60;1.77;;;12.50;99.90;;;;;;4899836;29;20202;-79
2024/01/03 12:25:18;;;;;;;7.67;2.30;;;12.50;99.90;;;;;;4899017;29;20448;-76
2024/01/03 12:27:44;;;;;;;5.40;1.63;;;12.50;99.70;;;;;;4886683;29;20187;-78
2024/01/03 12:30:19;;;;;;;7.63;2.00;;;12.50;99.20;;;;;;4907709;29;20895;-79
2024/01/03 12:32:46;;;;;;;13.73;3.63;;;12.50;98.90;;;;;;4864098;29;20435;-80
2024/01/03 12:35:13;;;;;;;7.43;3.10;;;12.40;98.80;;;;;;4885332;29;20555;-78
2024/01/03 12:37:42;;;;;;;11.33;2.93;;;12.40;99.00;;;;;;4909150;29;20407;-78
2024/01/03 12:40:13;;;;;;;7.90;2.47;;;12.60;98.10;;;;;;4903317;29;20436;-78
2024/01/03 12:42:39;;;;;;;10.63;2.83;;;12.70;97.30;;;;;;4873983;29;20448;-78
2024/01/03 12:45:06;;;;;;;7.60;2.80;;;12.90;96.50;;;;;;4906673;29;20462;-78
2024/01/03 12:47:32;;;;;;;10.50;2.23;;;13.10;95.90;;;;;;4882935;29;20413;-78